AAL808 KDCA-KORD
Flight info
| Callsign | AAL808 |
|---|---|
| Flight time | 1h 53m |
| Altitude | 36000 |
| Route | WYNGS5 RAMAY Q72 HACKS J149 ROD WATSN4 |
| Aircraft | A320/M-SDE3FGHIRWY/LB1 |
Departure
| Time | 2026-05-06 01:05 |
|---|---|
| Airport | Ronald Reagan Washington National Airport (KDCA) |
Arrival
| Time | 2026-05-06 02:58 |
|---|---|
| Airport | Chicago O'Hare International Airport (KORD) |
| Time | Latitude | Longitude | Altitude | Speed | Heading |
|---|---|---|---|---|---|
| 2026-05-06 00:44 | 38.85648 | -77.04301 | 27 ft | 0 kts | 172° |
| 2026-05-06 00:53 | 38.85656 | -77.04303 | 27 ft | 4 kts | 181° |
| 2026-05-06 00:54 | 38.85677 | -77.04306 | 27 ft | 4 kts | 186° |
| 2026-05-06 00:54 | 38.85700 | -77.04296 | 27 ft | 4 kts | 231° |
| 2026-05-06 00:54 | 38.85698 | -77.04300 | 27 ft | 0 kts | 234° |
| 2026-05-06 00:55 | 38.85702 | -77.04291 | 28 ft | 2 kts | 13° |
| 2026-05-06 00:56 | 38.85699 | -77.04294 | 27 ft | 2 kts | 250° |
| 2026-05-06 00:56 | 38.85700 | -77.04288 | 27 ft | 0 kts | 42° |
| 2026-05-06 01:00 | 38.85717 | -77.04266 | 28 ft | 8 kts | 48° |
| 2026-05-06 01:00 | 38.85751 | -77.04214 | 28 ft | 11 kts | 50° |
| 2026-05-06 01:01 | 38.85759 | -77.04201 | 29 ft | 0 kts | 50° |
| 2026-05-06 01:01 | 38.85760 | -77.04199 | 29 ft | 2 kts | 52° |
| 2026-05-06 01:01 | 38.85765 | -77.04143 | 29 ft | 9 kts | 99° |
| 2026-05-06 01:01 | 38.85764 | -77.04102 | 29 ft | 0 kts | 78° |
| 2026-05-06 01:02 | 38.85764 | -77.04099 | 29 ft | 3 kts | 76° |
| 2026-05-06 01:03 | 38.85807 | -77.04060 | 28 ft | 5 kts | 13° |
| 2026-05-06 01:03 | 38.85880 | -77.04063 | 27 ft | 13 kts | 357° |
| 2026-05-06 01:03 | 38.85954 | -77.04052 | 26 ft | 11 kts | 18° |
| 2026-05-06 01:03 | 38.86025 | -77.04009 | 27 ft | 14 kts | 30° |
| 2026-05-06 01:04 | 38.86086 | -77.03926 | 23 ft | 11 kts | 71° |
| 2026-05-06 01:04 | 38.86060 | -77.03872 | 23 ft | 5 kts | 159° |
| 2026-05-06 01:04 | 38.86031 | -77.03866 | 24 ft | 8 kts | 173° |
| 2026-05-06 01:04 | 38.85645 | -77.03826 | 26 ft | 101 kts | 175° |
| 2026-05-06 01:05 | 38.84731 | -77.03734 | 339 ft | 145 kts | 177° |
| 2026-05-06 01:05 | 38.83702 | -77.03660 | 1159 ft | 154 kts | 181° |
| 2026-05-06 01:05 | 38.82609 | -77.03636 | 2091 ft | 165 kts | 185° |
| 2026-05-06 01:05 | 38.81379 | -77.03623 | 2765 ft | 187 kts | 185° |
| 2026-05-06 01:06 | 38.80024 | -77.03609 | 3233 ft | 210 kts | 185° |
| 2026-05-06 01:06 | 38.78478 | -77.03589 | 3777 ft | 232 kts | 185° |
| 2026-05-06 01:06 | 38.76847 | -77.03585 | 4631 ft | 238 kts | 189° |
| 2026-05-06 01:06 | 38.75305 | -77.04269 | 5512 ft | 238 kts | 213° |
| 2026-05-06 01:07 | 38.74122 | -77.05733 | 6438 ft | 243 kts | 236° |
| 2026-05-06 01:07 | 38.73589 | -77.07811 | 7311 ft | 254 kts | 263° |
| 2026-05-06 01:07 | 38.73863 | -77.10094 | 8204 ft | 265 kts | 279° |
| 2026-05-06 01:07 | 38.74333 | -77.12380 | 9135 ft | 268 kts | 281° |
| 2026-05-06 01:08 | 38.74818 | -77.14697 | 10035 ft | 271 kts | 281° |
| 2026-05-06 01:08 | 38.75315 | -77.17100 | 10489 ft | 291 kts | 281° |
| 2026-05-06 01:08 | 38.75847 | -77.19708 | 10782 ft | 315 kts | 282° |
| 2026-05-06 01:08 | 38.76412 | -77.22482 | 11183 ft | 331 kts | 282° |
| 2026-05-06 01:09 | 38.77002 | -77.25373 | 11887 ft | 338 kts | 282° |
| 2026-05-06 01:09 | 38.77596 | -77.28280 | 12659 ft | 343 kts | 282° |
| 2026-05-06 01:09 | 38.78204 | -77.31249 | 13466 ft | 346 kts | 282° |
| 2026-05-06 01:09 | 38.78813 | -77.34236 | 14199 ft | 349 kts | 282° |
| 2026-05-06 01:10 | 38.79425 | -77.37265 | 14914 ft | 353 kts | 281° |
| 2026-05-06 01:10 | 38.80028 | -77.40270 | 15597 ft | 356 kts | 281° |
| 2026-05-06 01:10 | 38.80653 | -77.43399 | 16305 ft | 359 kts | 281° |
| 2026-05-06 01:10 | 38.81276 | -77.46520 | 17000 ft | 363 kts | 281° |
| 2026-05-06 01:11 | 38.81904 | -77.49663 | 17663 ft | 366 kts | 281° |
| 2026-05-06 01:11 | 38.82533 | -77.52803 | 18294 ft | 370 kts | 280° |
| 2026-05-06 01:11 | 38.83174 | -77.56000 | 18865 ft | 373 kts | 281° |
| 2026-05-06 01:11 | 38.83822 | -77.59226 | 19468 ft | 374 kts | 281° |
| 2026-05-06 01:12 | 38.84471 | -77.62469 | 20079 ft | 376 kts | 281° |
| 2026-05-06 01:12 | 38.85116 | -77.65724 | 20683 ft | 378 kts | 281° |
| 2026-05-06 01:12 | 38.85759 | -77.68983 | 21246 ft | 379 kts | 281° |
| 2026-05-06 01:12 | 38.86407 | -77.72255 | 21798 ft | 381 kts | 282° |
| 2026-05-06 01:13 | 38.87056 | -77.75537 | 22356 ft | 382 kts | 282° |
| 2026-05-06 01:13 | 38.87707 | -77.78834 | 22893 ft | 384 kts | 282° |
| 2026-05-06 01:13 | 38.88363 | -77.82162 | 23396 ft | 385 kts | 282° |
| 2026-05-06 01:13 | 38.89019 | -77.85497 | 23825 ft | 387 kts | 282° |
| 2026-05-06 01:14 | 38.90340 | -77.92215 | 24602 ft | 391 kts | 282° |
| 2026-05-06 01:14 | 38.91007 | -77.95615 | 24986 ft | 393 kts | 282° |
| 2026-05-06 01:14 | 38.91671 | -77.99008 | 25332 ft | 395 kts | 282° |
| 2026-05-06 01:15 | 38.92342 | -78.02441 | 25681 ft | 397 kts | 282° |
| 2026-05-06 01:15 | 38.93016 | -78.05900 | 26017 ft | 400 kts | 283° |
| 2026-05-06 01:15 | 38.93662 | -78.09381 | 26373 ft | 401 kts | 278° |
| 2026-05-06 01:15 | 38.93983 | -78.12942 | 26720 ft | 403 kts | 275° |
| 2026-05-06 01:16 | 38.94263 | -78.16512 | 27063 ft | 404 kts | 275° |
| 2026-05-06 01:16 | 38.94537 | -78.20110 | 27399 ft | 406 kts | 275° |
| 2026-05-06 01:16 | 38.94809 | -78.23716 | 27719 ft | 408 kts | 275° |
| 2026-05-06 01:16 | 38.95081 | -78.27339 | 28035 ft | 409 kts | 275° |
| 2026-05-06 01:17 | 38.95351 | -78.30990 | 28334 ft | 411 kts | 275° |
| 2026-05-06 01:17 | 38.95625 | -78.34725 | 28623 ft | 413 kts | 275° |
| 2026-05-06 01:17 | 38.95895 | -78.38360 | 28905 ft | 414 kts | 275° |
| 2026-05-06 01:17 | 38.96172 | -78.42041 | 29171 ft | 416 kts | 275° |
| 2026-05-06 01:18 | 38.96452 | -78.45738 | 29423 ft | 418 kts | 275° |
| 2026-05-06 01:18 | 38.96728 | -78.49453 | 29704 ft | 418 kts | 275° |
| 2026-05-06 01:18 | 38.96999 | -78.53167 | 30065 ft | 417 kts | 275° |
| 2026-05-06 01:18 | 38.97266 | -78.56851 | 30379 ft | 415 kts | 275° |
| 2026-05-06 01:19 | 38.97533 | -78.60521 | 30674 ft | 413 kts | 276° |
| 2026-05-06 01:19 | 38.97800 | -78.64191 | 30978 ft | 411 kts | 276° |
| 2026-05-06 01:19 | 38.98063 | -78.67835 | 31301 ft | 409 kts | 276° |
| 2026-05-06 01:19 | 38.98322 | -78.71471 | 31664 ft | 406 kts | 277° |
| 2026-05-06 01:20 | 38.98577 | -78.75063 | 32015 ft | 404 kts | 277° |
| 2026-05-06 01:20 | 38.98832 | -78.78630 | 32379 ft | 401 kts | 277° |
| 2026-05-06 01:20 | 38.99088 | -78.82205 | 32733 ft | 398 kts | 278° |
| 2026-05-06 01:20 | 38.99334 | -78.85689 | 33081 ft | 396 kts | 278° |
| 2026-05-06 01:21 | 38.99579 | -78.89194 | 33424 ft | 394 kts | 279° |
| 2026-05-06 01:21 | 38.99822 | -78.92673 | 33760 ft | 392 kts | 279° |
| 2026-05-06 01:21 | 39.00065 | -78.96152 | 34102 ft | 389 kts | 279° |
| 2026-05-06 01:21 | 39.00304 | -78.99599 | 34359 ft | 388 kts | 279° |
| 2026-05-06 01:22 | 39.00541 | -79.03049 | 34674 ft | 386 kts | 279° |
| 2026-05-06 01:22 | 39.00774 | -79.06463 | 34966 ft | 384 kts | 279° |
| 2026-05-06 01:22 | 39.01010 | -79.09856 | 35354 ft | 379 kts | 278° |
| 2026-05-06 01:22 | 39.01243 | -79.13212 | 35702 ft | 376 kts | 279° |
| 2026-05-06 01:23 | 39.01473 | -79.16554 | 35857 ft | 375 kts | 279° |
| 2026-05-06 01:23 | 39.01699 | -79.19878 | 35890 ft | 374 kts | 279° |
| 2026-05-06 01:23 | 39.02144 | -79.26549 | 35887 ft | 374 kts | 279° |
| 2026-05-06 01:24 | 39.02458 | -79.31195 | 35893 ft | 375 kts | 279° |
| 2026-05-06 01:24 | 39.02905 | -79.37861 | 35898 ft | 375 kts | 279° |
| 2026-05-06 01:25 | 39.03284 | -79.43702 | 35902 ft | 374 kts | 278° |
| 2026-05-06 01:25 | 39.03713 | -79.50347 | 35913 ft | 373 kts | 279° |
| 2026-05-06 01:26 | 39.04146 | -79.56992 | 35916 ft | 374 kts | 279° |
| 2026-05-06 01:26 | 39.04569 | -79.63642 | 35915 ft | 373 kts | 279° |
| 2026-05-06 01:27 | 39.04988 | -79.70275 | 35920 ft | 372 kts | 278° |
| 2026-05-06 01:27 | 39.05403 | -79.76880 | 35918 ft | 371 kts | 278° |
| 2026-05-06 01:28 | 39.05819 | -79.83486 | 35930 ft | 371 kts | 278° |
| 2026-05-06 01:28 | 39.06227 | -79.90030 | 35932 ft | 370 kts | 278° |
| 2026-05-06 01:29 | 39.06629 | -79.96666 | 35924 ft | 369 kts | 278° |
| 2026-05-06 01:29 | 39.07031 | -80.03254 | 35915 ft | 369 kts | 278° |
| 2026-05-06 01:30 | 39.07428 | -80.09823 | 35890 ft | 369 kts | 278° |
| 2026-05-06 01:30 | 39.07815 | -80.16358 | 35885 ft | 369 kts | 278° |
| 2026-05-06 01:31 | 39.08199 | -80.22927 | 35899 ft | 367 kts | 278° |
| 2026-05-06 01:31 | 39.08578 | -80.29473 | 35893 ft | 366 kts | 278° |
| 2026-05-06 01:32 | 39.08962 | -80.36000 | 35885 ft | 366 kts | 278° |
| 2026-05-06 01:32 | 39.09334 | -80.42525 | 35884 ft | 365 kts | 278° |
| 2026-05-06 01:33 | 39.09701 | -80.49043 | 35881 ft | 365 kts | 278° |
| 2026-05-06 01:33 | 39.10064 | -80.55557 | 35871 ft | 364 kts | 277° |
| 2026-05-06 01:34 | 39.10428 | -80.62051 | 35871 ft | 363 kts | 278° |
| 2026-05-06 01:34 | 39.10789 | -80.68541 | 35872 ft | 363 kts | 278° |
| 2026-05-06 01:35 | 39.11146 | -80.75027 | 35875 ft | 363 kts | 278° |
| 2026-05-06 01:35 | 39.11494 | -80.81520 | 35876 ft | 364 kts | 277° |
| 2026-05-06 01:36 | 39.11837 | -80.88021 | 35876 ft | 364 kts | 278° |
| 2026-05-06 01:36 | 39.12182 | -80.94516 | 35889 ft | 363 kts | 277° |
| 2026-05-06 01:37 | 39.12514 | -81.00992 | 35891 ft | 362 kts | 277° |
| 2026-05-06 01:37 | 39.12902 | -81.07394 | 35889 ft | 359 kts | 282° |
| 2026-05-06 01:38 | 39.14635 | -81.13407 | 35888 ft | 357 kts | 296° |
| 2026-05-06 01:38 | 39.16951 | -81.19021 | 35884 ft | 357 kts | 296° |
| 2026-05-06 01:39 | 39.19275 | -81.24681 | 35876 ft | 357 kts | 296° |
| 2026-05-06 01:39 | 39.21594 | -81.30344 | 35882 ft | 357 kts | 296° |
| 2026-05-06 01:40 | 39.23906 | -81.36007 | 35889 ft | 357 kts | 296° |
| 2026-05-06 01:40 | 39.26214 | -81.41678 | 35891 ft | 356 kts | 296° |
| 2026-05-06 01:41 | 39.28718 | -81.47825 | 35896 ft | 355 kts | 295° |
| 2026-05-06 01:41 | 39.31013 | -81.53474 | 35889 ft | 355 kts | 295° |
| 2026-05-06 01:42 | 39.33309 | -81.59129 | 35878 ft | 355 kts | 295° |
| 2026-05-06 01:42 | 39.35604 | -81.64788 | 35879 ft | 356 kts | 295° |
| 2026-05-06 01:43 | 39.37895 | -81.70450 | 35869 ft | 356 kts | 295° |
| 2026-05-06 01:43 | 39.40189 | -81.76115 | 35867 ft | 356 kts | 295° |
| 2026-05-06 01:44 | 39.42479 | -81.81783 | 35868 ft | 356 kts | 295° |
| 2026-05-06 01:44 | 39.44760 | -81.87453 | 35868 ft | 356 kts | 295° |
| 2026-05-06 01:45 | 39.47036 | -81.93135 | 35867 ft | 356 kts | 295° |
| 2026-05-06 01:45 | 39.48942 | -81.97895 | 35865 ft | 355 kts | 295° |
| 2026-05-06 01:46 | 39.51215 | -82.03581 | 35869 ft | 355 kts | 295° |
| 2026-05-06 01:46 | 39.53481 | -82.09269 | 35867 ft | 355 kts | 295° |
| 2026-05-06 01:47 | 39.55745 | -82.14957 | 35893 ft | 355 kts | 295° |
| 2026-05-06 01:47 | 39.58013 | -82.20641 | 35879 ft | 355 kts | 295° |
| 2026-05-06 01:48 | 39.60272 | -82.26336 | 35868 ft | 355 kts | 295° |
| 2026-05-06 01:48 | 39.62522 | -82.32035 | 35866 ft | 355 kts | 295° |
| 2026-05-06 01:49 | 39.64771 | -82.37730 | 35863 ft | 355 kts | 295° |
| 2026-05-06 01:49 | 39.67026 | -82.43431 | 35869 ft | 355 kts | 294° |
| 2026-05-06 01:50 | 39.69278 | -82.49130 | 35868 ft | 354 kts | 294° |
| 2026-05-06 01:50 | 39.71521 | -82.54822 | 35872 ft | 354 kts | 294° |
| 2026-05-06 01:51 | 39.73757 | -82.60518 | 35871 ft | 354 kts | 294° |
| 2026-05-06 01:51 | 39.75981 | -82.66215 | 35868 ft | 353 kts | 294° |
| 2026-05-06 01:52 | 39.78210 | -82.71918 | 35869 ft | 353 kts | 294° |
| 2026-05-06 01:52 | 39.80434 | -82.77612 | 35866 ft | 353 kts | 294° |
| 2026-05-06 01:53 | 39.82648 | -82.83319 | 35897 ft | 353 kts | 293° |
| 2026-05-06 01:53 | 39.84861 | -82.89023 | 35887 ft | 353 kts | 294° |
| 2026-05-06 01:54 | 39.87081 | -82.94730 | 35881 ft | 353 kts | 294° |
| 2026-05-06 01:54 | 39.89282 | -83.00402 | 35880 ft | 353 kts | 293° |
| 2026-05-06 01:55 | 39.91489 | -83.06119 | 35887 ft | 353 kts | 293° |
| 2026-05-06 01:55 | 39.93696 | -83.11829 | 35880 ft | 353 kts | 293° |
| 2026-05-06 01:56 | 39.95898 | -83.17554 | 35885 ft | 353 kts | 293° |
| 2026-05-06 01:56 | 39.98094 | -83.23273 | 35879 ft | 353 kts | 293° |
| 2026-05-06 01:57 | 40.00287 | -83.28999 | 35872 ft | 352 kts | 293° |
| 2026-05-06 01:57 | 40.02475 | -83.34715 | 35868 ft | 352 kts | 293° |
| 2026-05-06 01:58 | 40.04668 | -83.40437 | 35864 ft | 352 kts | 293° |
| 2026-05-06 01:58 | 40.06849 | -83.46155 | 35877 ft | 352 kts | 293° |
| 2026-05-06 01:59 | 40.09025 | -83.51882 | 35895 ft | 352 kts | 293° |
| 2026-05-06 01:59 | 40.11206 | -83.57621 | 35893 ft | 352 kts | 292° |
| 2026-05-06 02:00 | 40.13375 | -83.63346 | 35906 ft | 352 kts | 292° |
| 2026-05-06 02:00 | 40.15548 | -83.69074 | 35908 ft | 352 kts | 292° |
| 2026-05-06 02:01 | 40.17718 | -83.74812 | 35910 ft | 352 kts | 292° |
| 2026-05-06 02:01 | 40.19879 | -83.80545 | 35912 ft | 352 kts | 292° |
| 2026-05-06 02:02 | 40.22034 | -83.86281 | 35911 ft | 351 kts | 292° |
| 2026-05-06 02:02 | 40.23115 | -83.89166 | 35593 ft | 352 kts | 292° |
| 2026-05-06 02:02 | 40.24189 | -83.92036 | 35112 ft | 351 kts | 292° |
| 2026-05-06 02:03 | 40.25263 | -83.94906 | 34637 ft | 351 kts | 292° |
| 2026-05-06 02:03 | 40.26339 | -83.97779 | 34167 ft | 352 kts | 292° |
| 2026-05-06 02:03 | 40.27419 | -84.00659 | 33927 ft | 352 kts | 292° |
| 2026-05-06 02:03 | 40.28518 | -84.03531 | 33891 ft | 355 kts | 295° |
| 2026-05-06 02:04 | 40.31516 | -84.08764 | 33899 ft | 361 kts | 302° |
| 2026-05-06 02:04 | 40.34668 | -84.13879 | 33897 ft | 359 kts | 302° |
| 2026-05-06 02:05 | 40.37787 | -84.18973 | 33909 ft | 358 kts | 302° |
| 2026-05-06 02:05 | 40.40901 | -84.24069 | 33911 ft | 358 kts | 302° |
| 2026-05-06 02:06 | 40.44014 | -84.29163 | 33901 ft | 358 kts | 302° |
| 2026-05-06 02:06 | 40.47120 | -84.34257 | 33891 ft | 358 kts | 302° |
| 2026-05-06 02:07 | 40.50232 | -84.39372 | 33902 ft | 359 kts | 302° |
| 2026-05-06 02:07 | 40.53346 | -84.44494 | 33894 ft | 359 kts | 302° |
| 2026-05-06 02:08 | 40.56460 | -84.49626 | 33894 ft | 359 kts | 302° |
| 2026-05-06 02:08 | 40.59550 | -84.54731 | 33902 ft | 359 kts | 302° |
| 2026-05-06 02:09 | 40.62657 | -84.59872 | 33900 ft | 359 kts | 302° |
| 2026-05-06 02:09 | 40.65758 | -84.65019 | 33897 ft | 359 kts | 302° |
| 2026-05-06 02:10 | 40.68855 | -84.70169 | 33918 ft | 358 kts | 301° |
| 2026-05-06 02:10 | 40.71955 | -84.75317 | 33912 ft | 359 kts | 301° |
| 2026-05-06 02:11 | 40.75060 | -84.80474 | 33908 ft | 359 kts | 301° |
| 2026-05-06 02:11 | 40.78161 | -84.85647 | 33906 ft | 359 kts | 301° |
| 2026-05-06 02:12 | 40.81254 | -84.90824 | 33935 ft | 358 kts | 301° |
| 2026-05-06 02:12 | 40.84331 | -84.95973 | 33936 ft | 357 kts | 301° |
| 2026-05-06 02:13 | 40.87401 | -85.01117 | 33929 ft | 356 kts | 301° |
| 2026-05-06 02:13 | 40.90462 | -85.06266 | 33925 ft | 356 kts | 301° |
| 2026-05-06 02:14 | 40.93520 | -85.11409 | 33917 ft | 356 kts | 301° |
| 2026-05-06 02:14 | 40.96578 | -85.16559 | 33914 ft | 356 kts | 301° |
| 2026-05-06 02:15 | 40.99727 | -85.21651 | 33912 ft | 359 kts | 303° |
| 2026-05-06 02:15 | 41.03130 | -85.26528 | 33910 ft | 361 kts | 305° |
| 2026-05-06 02:16 | 41.06567 | -85.31371 | 33933 ft | 360 kts | 304° |
| 2026-05-06 02:16 | 41.09962 | -85.36248 | 33921 ft | 359 kts | 304° |
| 2026-05-06 02:17 | 41.13323 | -85.41150 | 33908 ft | 359 kts | 303° |
| 2026-05-06 02:17 | 41.16649 | -85.46091 | 33907 ft | 355 kts | 300° |
| 2026-05-06 02:18 | 41.18814 | -85.51784 | 33900 ft | 343 kts | 284° |
| 2026-05-06 02:18 | 41.20265 | -85.57823 | 33899 ft | 344 kts | 284° |
| 2026-05-06 02:19 | 41.21711 | -85.63831 | 33901 ft | 344 kts | 284° |
| 2026-05-06 02:19 | 41.23161 | -85.69884 | 33901 ft | 344 kts | 284° |
| 2026-05-06 02:20 | 41.25328 | -85.78966 | 33901 ft | 344 kts | 284° |
| 2026-05-06 02:21 | 41.26746 | -85.85030 | 33896 ft | 343 kts | 281° |
| 2026-05-06 02:21 | 41.27363 | -85.91285 | 33896 ft | 341 kts | 276° |
| 2026-05-06 02:22 | 41.27869 | -85.97559 | 33939 ft | 341 kts | 275° |
| 2026-05-06 02:22 | 41.28374 | -86.03832 | 33933 ft | 341 kts | 276° |
| 2026-05-06 02:23 | 41.29043 | -86.10078 | 33919 ft | 341 kts | 278° |
| 2026-05-06 02:23 | 41.29822 | -86.16306 | 33908 ft | 342 kts | 278° |
| 2026-05-06 02:24 | 41.30591 | -86.22544 | 33910 ft | 342 kts | 277° |
| 2026-05-06 02:24 | 41.31327 | -86.28788 | 33906 ft | 342 kts | 277° |
| 2026-05-06 02:25 | 41.32045 | -86.35037 | 33908 ft | 342 kts | 277° |
| 2026-05-06 02:25 | 41.32764 | -86.41284 | 33909 ft | 341 kts | 277° |
| 2026-05-06 02:26 | 41.33488 | -86.47525 | 33909 ft | 341 kts | 277° |
| 2026-05-06 02:26 | 41.34291 | -86.53741 | 33907 ft | 342 kts | 283° |
| 2026-05-06 02:27 | 41.35900 | -86.58595 | 33921 ft | 348 kts | 291° |
| 2026-05-06 02:27 | 41.38480 | -86.65282 | 33911 ft | 348 kts | 292° |
| 2026-05-06 02:27 | 41.39878 | -86.67971 | 33907 ft | 359 kts | 302° |
| 2026-05-06 02:28 | 41.41766 | -86.70243 | 33903 ft | 375 kts | 313° |
| 2026-05-06 02:28 | 41.44087 | -86.71984 | 33901 ft | 388 kts | 320° |
| 2026-05-06 02:28 | 41.46516 | -86.73570 | 33896 ft | 389 kts | 321° |
| 2026-05-06 02:29 | 41.51391 | -86.76724 | 33895 ft | 391 kts | 322° |
| 2026-05-06 02:29 | 41.53100 | -86.77608 | 33921 ft | 404 kts | 329° |
| 2026-05-06 02:29 | 41.55920 | -86.78393 | 33906 ft | 426 kts | 340° |
| 2026-05-06 02:30 | 41.61890 | -86.78973 | 33887 ft | 431 kts | 341° |
| 2026-05-06 02:30 | 41.67871 | -86.79556 | 33892 ft | 430 kts | 340° |
| 2026-05-06 02:31 | 41.73821 | -86.80302 | 33938 ft | 429 kts | 339° |
| 2026-05-06 02:31 | 41.79749 | -86.81210 | 33903 ft | 426 kts | 337° |
| 2026-05-06 02:32 | 41.85380 | -86.82978 | 33894 ft | 400 kts | 322° |
| 2026-05-06 02:32 | 41.87797 | -86.84664 | 33892 ft | 385 kts | 315° |
| 2026-05-06 02:32 | 41.89931 | -86.86729 | 33892 ft | 374 kts | 308° |
| 2026-05-06 02:33 | 41.93908 | -86.91175 | 33892 ft | 375 kts | 308° |
| 2026-05-06 02:33 | 41.95265 | -86.92683 | 33936 ft | 375 kts | 308° |
| 2026-05-06 02:34 | 42.01150 | -87.00751 | 33938 ft | 341 kts | 280° |
| 2026-05-06 02:34 | 42.01293 | -87.03858 | 33924 ft | 334 kts | 259° |
| 2026-05-06 02:34 | 42.00558 | -87.06830 | 33914 ft | 337 kts | 252° |
| 2026-05-06 02:35 | 41.98587 | -87.12640 | 33898 ft | 341 kts | 249° |
| 2026-05-06 02:35 | 41.96542 | -87.18404 | 33898 ft | 342 kts | 250° |
| 2026-05-06 02:36 | 41.94580 | -87.24230 | 33892 ft | 344 kts | 251° |
| 2026-05-06 02:36 | 41.92656 | -87.30125 | 33891 ft | 345 kts | 251° |
| 2026-05-06 02:37 | 41.90733 | -87.36019 | 33915 ft | 345 kts | 251° |
| 2026-05-06 02:37 | 41.88820 | -87.41840 | 33877 ft | 329 kts | 251° |
| 2026-05-06 02:37 | 41.87907 | -87.44590 | 33587 ft | 318 kts | 251° |
| 2026-05-06 02:38 | 41.87019 | -87.47274 | 33074 ft | 313 kts | 250° |
| 2026-05-06 02:38 | 41.86141 | -87.49938 | 32507 ft | 311 kts | 250° |
| 2026-05-06 02:38 | 41.85269 | -87.52584 | 31918 ft | 310 kts | 249° |
| 2026-05-06 02:38 | 41.84397 | -87.55225 | 31337 ft | 310 kts | 248° |
| 2026-05-06 02:39 | 41.83523 | -87.57864 | 30764 ft | 309 kts | 247° |
| 2026-05-06 02:39 | 41.82644 | -87.60515 | 29980 ft | 315 kts | 246° |
| 2026-05-06 02:39 | 41.81743 | -87.63228 | 29042 ft | 321 kts | 246° |
| 2026-05-06 02:39 | 41.80827 | -87.65993 | 28116 ft | 327 kts | 246° |
| 2026-05-06 02:40 | 41.79896 | -87.68803 | 27196 ft | 333 kts | 246° |
| 2026-05-06 02:40 | 41.78947 | -87.71659 | 26311 ft | 338 kts | 246° |
| 2026-05-06 02:40 | 41.77980 | -87.74557 | 25423 ft | 343 kts | 246° |
| 2026-05-06 02:40 | 41.77002 | -87.77488 | 24544 ft | 347 kts | 246° |
| 2026-05-06 02:41 | 41.76014 | -87.80452 | 23697 ft | 351 kts | 247° |
| 2026-05-06 02:41 | 41.75015 | -87.83446 | 22680 ft | 355 kts | 246° |
| 2026-05-06 02:41 | 41.74001 | -87.86482 | 21683 ft | 359 kts | 246° |
| 2026-05-06 02:41 | 41.72978 | -87.89546 | 20823 ft | 361 kts | 246° |
| 2026-05-06 02:42 | 41.71960 | -87.92578 | 20283 ft | 354 kts | 246° |
| 2026-05-06 02:42 | 41.70956 | -87.95554 | 19804 ft | 348 kts | 246° |
| 2026-05-06 02:42 | 41.69968 | -87.98483 | 19413 ft | 341 kts | 246° |
| 2026-05-06 02:42 | 41.69002 | -88.01351 | 18988 ft | 335 kts | 246° |
| 2026-05-06 02:43 | 41.68053 | -88.04174 | 18562 ft | 330 kts | 246° |
| 2026-05-06 02:43 | 41.67136 | -88.06898 | 18125 ft | 312 kts | 246° |
| 2026-05-06 02:43 | 41.66268 | -88.09474 | 17710 ft | 295 kts | 247° |
| 2026-05-06 02:43 | 41.65448 | -88.11902 | 17322 ft | 278 kts | 247° |
| 2026-05-06 02:44 | 41.64672 | -88.14199 | 16955 ft | 264 kts | 247° |
| 2026-05-06 02:44 | 41.63933 | -88.16380 | 16602 ft | 251 kts | 247° |
| 2026-05-06 02:44 | 41.63235 | -88.18434 | 16281 ft | 240 kts | 247° |
| 2026-05-06 02:44 | 41.62560 | -88.20421 | 15953 ft | 230 kts | 248° |
| 2026-05-06 02:45 | 41.61892 | -88.22388 | 15625 ft | 230 kts | 248° |
| 2026-05-06 02:45 | 41.61241 | -88.24308 | 15302 ft | 231 kts | 248° |
| 2026-05-06 02:45 | 41.60577 | -88.26264 | 14966 ft | 232 kts | 248° |
| 2026-05-06 02:45 | 41.59908 | -88.28237 | 14615 ft | 234 kts | 248° |
| 2026-05-06 02:46 | 41.59240 | -88.30206 | 14268 ft | 233 kts | 248° |
| 2026-05-06 02:46 | 41.58570 | -88.32175 | 13884 ft | 234 kts | 248° |
| 2026-05-06 02:46 | 41.57895 | -88.34163 | 13424 ft | 236 kts | 249° |
| 2026-05-06 02:46 | 41.57606 | -88.36247 | 13195 ft | 226 kts | 279° |
| 2026-05-06 02:47 | 41.58361 | -88.38018 | 13107 ft | 224 kts | 310° |
| 2026-05-06 02:47 | 41.59722 | -88.39139 | 12553 ft | 245 kts | 336° |
| 2026-05-06 02:47 | 41.61516 | -88.39149 | 11841 ft | 278 kts | 11° |
| 2026-05-06 02:47 | 41.63205 | -88.37695 | 11106 ft | 305 kts | 46° |
| 2026-05-06 02:48 | 41.64390 | -88.35301 | 10547 ft | 305 kts | 61° |
| 2026-05-06 02:48 | 41.65265 | -88.32679 | 9747 ft | 312 kts | 68° |
| 2026-05-06 02:48 | 41.66007 | -88.30005 | 9103 ft | 308 kts | 69° |
| 2026-05-06 02:48 | 41.66717 | -88.27373 | 8745 ft | 294 kts | 68° |
| 2026-05-06 02:49 | 41.67423 | -88.24883 | 8423 ft | 279 kts | 67° |
| 2026-05-06 02:49 | 41.68180 | -88.22579 | 8118 ft | 263 kts | 58° |
| 2026-05-06 02:49 | 41.69237 | -88.20690 | 7799 ft | 247 kts | 41° |
| 2026-05-06 02:49 | 41.70457 | -88.19205 | 7385 ft | 229 kts | 37° |
| 2026-05-06 02:50 | 41.71633 | -88.17859 | 6923 ft | 214 kts | 37° |
| 2026-05-06 02:50 | 41.72701 | -88.16615 | 6652 ft | 193 kts | 37° |
| 2026-05-06 02:50 | 41.73661 | -88.15490 | 6383 ft | 175 kts | 37° |
| 2026-05-06 02:50 | 41.74544 | -88.14456 | 6143 ft | 163 kts | 37° |
| 2026-05-06 02:51 | 41.75358 | -88.13500 | 5927 ft | 149 kts | 36° |
| 2026-05-06 02:51 | 41.76113 | -88.12614 | 5732 ft | 141 kts | 36° |
| 2026-05-06 02:51 | 41.76844 | -88.11756 | 5593 ft | 138 kts | 36° |
| 2026-05-06 02:51 | 41.77560 | -88.10915 | 5383 ft | 136 kts | 36° |
| 2026-05-06 02:52 | 41.78272 | -88.10079 | 5179 ft | 136 kts | 36° |
| 2026-05-06 02:52 | 41.78979 | -88.09248 | 5001 ft | 135 kts | 36° |
| 2026-05-06 02:52 | 41.79686 | -88.08417 | 4823 ft | 135 kts | 36° |
| 2026-05-06 02:52 | 41.80390 | -88.07588 | 4634 ft | 135 kts | 36° |
| 2026-05-06 02:53 | 41.81095 | -88.06759 | 4443 ft | 134 kts | 36° |
| 2026-05-06 02:53 | 41.81793 | -88.05936 | 4239 ft | 134 kts | 36° |
| 2026-05-06 02:53 | 41.82490 | -88.05116 | 4049 ft | 134 kts | 36° |
| 2026-05-06 02:53 | 41.83188 | -88.04293 | 3871 ft | 133 kts | 36° |
| 2026-05-06 02:54 | 41.83885 | -88.03472 | 3684 ft | 133 kts | 36° |
| 2026-05-06 02:54 | 41.84579 | -88.02654 | 3507 ft | 133 kts | 36° |
| 2026-05-06 02:54 | 41.85270 | -88.01838 | 3327 ft | 132 kts | 36° |
| 2026-05-06 02:54 | 41.85960 | -88.01025 | 3147 ft | 132 kts | 35° |
| 2026-05-06 02:55 | 41.86649 | -88.00212 | 2965 ft | 132 kts | 35° |
| 2026-05-06 02:55 | 41.87336 | -87.99400 | 2785 ft | 132 kts | 35° |
| 2026-05-06 02:55 | 41.88025 | -87.98587 | 2604 ft | 132 kts | 35° |
| 2026-05-06 02:55 | 41.88713 | -87.97775 | 2429 ft | 131 kts | 35° |
| 2026-05-06 02:56 | 41.89397 | -87.96966 | 2249 ft | 131 kts | 35° |
| 2026-05-06 02:56 | 41.90084 | -87.96154 | 2068 ft | 131 kts | 35° |
| 2026-05-06 02:56 | 41.90769 | -87.95344 | 1890 ft | 131 kts | 35° |
| 2026-05-06 02:56 | 41.91452 | -87.94537 | 1712 ft | 130 kts | 36° |
| 2026-05-06 02:57 | 41.92135 | -87.93729 | 1551 ft | 132 kts | 37° |
| 2026-05-06 02:57 | 41.92826 | -87.92912 | 1369 ft | 133 kts | 38° |
| 2026-05-06 02:57 | 41.93523 | -87.92087 | 1191 ft | 134 kts | 38° |
| 2026-05-06 02:57 | 41.94226 | -87.91255 | 1010 ft | 135 kts | 39° |
| 2026-05-06 02:58 | 41.94930 | -87.90411 | 831 ft | 137 kts | 39° |
| 2026-05-06 02:58 | 41.95638 | -87.89575 | 680 ft | 131 kts | 38° |
| 2026-05-06 02:58 | 41.96097 | -87.89046 | 670 ft | 40 kts | 44° |
| 2026-05-06 02:58 | 41.96180 | -87.88945 | 670 ft | 9 kts | 39° |
| 2026-05-06 02:59 | 41.96271 | -87.88840 | 671 ft | 24 kts | 38° |
| 2026-05-06 02:59 | 41.96429 | -87.88707 | 671 ft | 30 kts | 24° |
| 2026-05-06 02:59 | 41.96605 | -87.88642 | 669 ft | 23 kts | 10° |
| 2026-05-06 02:59 | 41.96745 | -87.88584 | 669 ft | 13 kts | 24° |
| 2026-05-06 03:00 | 41.96839 | -87.88527 | 668 ft | 17 kts | 24° |
| 2026-05-06 03:00 | 41.96948 | -87.88464 | 668 ft | 17 kts | 20° |
| 2026-05-06 03:00 | 41.97019 | -87.88442 | 669 ft | 8 kts | 8° |
| 2026-05-06 03:00 | 41.97075 | -87.88433 | 669 ft | 8 kts | 1° |
| 2026-05-06 03:01 | 41.97134 | -87.88439 | 669 ft | 9 kts | 344° |
| 2026-05-06 03:01 | 41.97186 | -87.88505 | 669 ft | 12 kts | 292° |
| 2026-05-06 03:01 | 41.97213 | -87.88624 | 668 ft | 14 kts | 310° |
| 2026-05-06 03:01 | 41.97264 | -87.88746 | 669 ft | 15 kts | 270° |
| 2026-05-06 03:02 | 41.97263 | -87.88865 | 668 ft | 14 kts | 281° |
| 2026-05-06 03:02 | 41.97270 | -87.89007 | 669 ft | 16 kts | 271° |
| 2026-05-06 03:02 | 41.97270 | -87.89159 | 669 ft | 16 kts | 270° |
| 2026-05-06 03:02 | 41.97275 | -87.89284 | 669 ft | 12 kts | 280° |
| 2026-05-06 03:03 | 41.97318 | -87.89393 | 669 ft | 14 kts | 279° |
| 2026-05-06 03:03 | 41.97284 | -87.89524 | 669 ft | 16 kts | 256° |
| 2026-05-06 03:03 | 41.97332 | -87.89651 | 669 ft | 14 kts | 333° |
| 2026-05-06 03:03 | 41.97380 | -87.89671 | 667 ft | 0 kts | 345° |